createdAt,value
2023-03-26T00:01:23.900Z,9.52
2023-03-26T00:03:55.298Z,9.46
2023-03-26T00:06:38.657Z,9.42
2023-03-26T00:09:09.952Z,9.40
2023-03-26T00:11:36.999Z,9.34
2023-03-26T00:14:03.965Z,9.27
2023-03-26T00:16:32.151Z,9.27
2023-03-26T00:19:00.117Z,9.21
2023-03-26T00:21:29.043Z,9.21
2023-03-26T00:24:08.084Z,9.18
2023-03-26T00:26:38.460Z,9.16
2023-03-26T00:29:06.911Z,9.11
2023-03-26T00:31:34.462Z,9.04
2023-03-26T00:34:03.889Z,8.95
2023-03-26T00:36:31.045Z,8.94
2023-03-26T00:38:57.948Z,8.86
2023-03-26T00:41:26.665Z,8.84
2023-03-26T00:43:56.755Z,8.81
2023-03-26T00:46:29.479Z,8.79
2023-03-26T00:48:59.890Z,8.85
2023-03-26T00:51:28.753Z,8.78
2023-03-26T00:53:57.128Z,8.77
2023-03-26T00:56:24.594Z,8.81
2023-03-26T00:58:51.434Z,8.78
2023-03-26T01:01:28.062Z,8.76
2023-03-26T01:04:08.410Z,8.71
2023-03-26T01:06:41.335Z,8.77
2023-03-26T01:09:18.807Z,8.72
2023-03-26T01:11:46.990Z,8.77
2023-03-26T01:14:20.130Z,8.76
2023-03-26T01:16:53.714Z,8.75
2023-03-26T01:19:34.086Z,8.77
2023-03-26T01:22:00.929Z,8.70
2023-03-26T01:24:27.745Z,8.67
2023-03-26T01:27:35.932Z,8.60
2023-03-26T01:30:10.539Z,8.56
2023-03-26T01:32:47.624Z,8.53
2023-03-26T01:35:33.367Z,8.51
2023-03-26T01:38:32.892Z,8.47
2023-03-26T01:41:09.742Z,8.39
2023-03-26T01:43:54.216Z,8.35
2023-03-26T01:46:24.155Z,8.34
2023-03-26T01:48:51.572Z,8.32
2023-03-26T01:51:30.683Z,8.31
2023-03-26T01:53:58.396Z,8.28
2023-03-26T01:56:35.584Z,8.24
2023-03-26T01:59:29.600Z,8.19
2023-03-26T02:02:02.096Z,8.18
2023-03-26T02:04:54.758Z,8.08
2023-03-26T02:07:34.594Z,8.06
2023-03-26T02:10:10.438Z,7.90
2023-03-26T02:12:37.907Z,7.91
2023-03-26T02:15:05.864Z,7.92
2023-03-26T02:17:33.216Z,7.82
2023-03-26T02:20:05.902Z,7.82
2023-03-26T02:22:32.771Z,7.81
2023-03-26T02:24:59.566Z,7.77
2023-03-26T02:27:27.068Z,7.76
2023-03-26T02:29:53.936Z,7.72
2023-03-26T02:32:20.682Z,7.75
2023-03-26T02:34:47.656Z,7.71
2023-03-26T02:37:14.458Z,7.69
2023-03-26T02:39:41.856Z,7.69
2023-03-26T02:42:08.604Z,7.70
2023-03-26T02:44:35.470Z,7.62
2023-03-26T02:47:02.229Z,7.54
2023-03-26T02:49:29.054Z,7.54
2023-03-26T02:51:56.363Z,7.52
2023-03-26T02:54:23.634Z,7.46
2023-03-26T02:56:50.847Z,7.43
2023-03-26T02:59:18.069Z,7.38
2023-03-26T03:01:46.576Z,7.39
2023-03-26T03:04:13.378Z,7.38
2023-03-26T03:06:40.630Z,7.39
2023-03-26T03:09:11.577Z,7.36
2023-03-26T03:11:40.040Z,7.34
2023-03-26T03:14:07.130Z,7.30
2023-03-26T03:16:34.149Z,7.27
2023-03-26T03:19:01.948Z,7.25
2023-03-26T03:21:29.503Z,7.26
2023-03-26T03:24:00.200Z,7.24
2023-03-26T03:26:29.696Z,7.22
2023-03-26T03:28:57.973Z,7.22
2023-03-26T03:31:26.618Z,7.23
2023-03-26T03:33:53.436Z,7.22
2023-03-26T03:36:22.664Z,7.24
2023-03-26T03:38:50.057Z,7.24
2023-03-26T03:41:18.709Z,7.25
2023-03-26T03:43:45.969Z,7.28
2023-03-26T03:46:13.062Z,7.26
2023-03-26T03:48:40.760Z,7.23
2023-03-26T03:51:07.695Z,7.24
2023-03-26T03:53:37.364Z,7.28
2023-03-26T03:56:04.856Z,7.25
2023-03-26T03:58:31.666Z,7.24
2023-03-26T04:01:01.014Z,7.21
2023-03-26T04:03:33.195Z,7.23
2023-03-26T04:06:01.112Z,7.23
2023-03-26T04:08:27.931Z,7.21
2023-03-26T04:10:54.763Z,7.17
2023-03-26T04:13:21.691Z,7.15
2023-03-26T04:15:48.538Z,7.14
2023-03-26T04:18:15.754Z,7.10
2023-03-26T04:20:46.688Z,7.09
2023-03-26T04:23:18.248Z,7.08
2023-03-26T04:25:49.223Z,7.06
2023-03-26T04:28:31.187Z,7.04
2023-03-26T04:31:01.026Z,7.07
2023-03-26T04:33:30.715Z,7.09
2023-03-26T04:36:01.775Z,7.09
2023-03-26T04:38:37.218Z,7.13
2023-03-26T04:41:07.727Z,7.14
2023-03-26T04:43:35.686Z,7.14
2023-03-26T04:46:05.560Z,7.16
2023-03-26T04:48:32.783Z,7.16
2023-03-26T04:50:59.537Z,7.16
2023-03-26T04:53:26.354Z,7.18
2023-03-26T04:56:03.555Z,7.21
2023-03-26T04:58:33.119Z,7.25
2023-03-26T05:01:10.189Z,7.25
2023-03-26T05:03:39.637Z,7.25
2023-03-26T05:06:06.894Z,7.26
2023-03-26T05:08:33.675Z,7.31
2023-03-26T05:11:00.433Z,7.32
2023-03-26T05:13:27.180Z,7.34
2023-03-26T05:15:53.946Z,7.32
2023-03-26T05:18:20.662Z,7.34
2023-03-26T05:20:47.581Z,7.37
2023-03-26T05:23:14.378Z,7.37
2023-03-26T05:25:41.301Z,7.36
2023-03-26T05:28:10.626Z,7.36
2023-03-26T05:30:37.470Z,7.38
2023-03-26T05:33:04.698Z,7.40
2023-03-26T05:35:31.741Z,7.43
2023-03-26T05:37:58.520Z,7.46
2023-03-26T05:40:25.356Z,7.46
2023-03-26T05:42:52.130Z,7.50
2023-03-26T05:45:19.094Z,7.54
2023-03-26T05:47:46.142Z,7.57
2023-03-26T05:50:12.903Z,7.60
2023-03-26T05:52:39.849Z,7.60
2023-03-26T05:55:08.257Z,7.65
2023-03-26T05:57:35.607Z,7.67
2023-03-26T06:00:04.259Z,7.69
2023-03-26T06:02:31.734Z,7.73
2023-03-26T06:04:58.524Z,7.77
2023-03-26T06:07:27.081Z,7.80
2023-03-26T06:09:54.290Z,7.83
2023-03-26T06:12:21.471Z,7.88
2023-03-26T06:14:48.324Z,7.92
2023-03-26T06:17:15.099Z,7.97
2023-03-26T06:19:41.854Z,8.03
2023-03-26T06:22:08.656Z,8.08
2023-03-26T06:24:35.394Z,8.12
2023-03-26T06:27:02.158Z,8.16
2023-03-26T06:29:28.997Z,8.20
2023-03-26T06:31:59.602Z,8.25
2023-03-26T06:34:30.356Z,8.30
2023-03-26T06:36:57.089Z,8.34
2023-03-26T06:39:23.895Z,8.38
2023-03-26T06:41:50.799Z,8.41
2023-03-26T06:44:17.572Z,8.45
2023-03-26T06:46:44.537Z,8.49
2023-03-26T06:49:11.357Z,8.53
2023-03-26T06:51:40.699Z,8.59
2023-03-26T06:54:07.564Z,8.64
2023-03-26T06:56:34.405Z,8.69
2023-03-26T06:59:01.264Z,8.74
2023-03-26T07:01:28.056Z,8.79
2023-03-26T07:03:54.899Z,8.86
2023-03-26T07:06:26.641Z,8.92
2023-03-26T07:08:55.452Z,8.98
2023-03-26T07:11:25.527Z,9.04
2023-03-26T07:13:52.905Z,9.12
2023-03-26T07:16:19.828Z,9.18
2023-03-26T07:18:46.740Z,9.23
2023-03-26T07:21:13.978Z,9.29
2023-03-26T07:23:41.328Z,9.35
2023-03-26T07:26:51.818Z,9.40
2023-03-26T07:29:35.010Z,9.45
2023-03-26T07:32:20.320Z,9.51
2023-03-26T07:34:55.056Z,9.56
2023-03-26T07:37:33.591Z,9.60
2023-03-26T07:40:31.733Z,9.65
2023-03-26T07:43:24.757Z,9.69
2023-03-26T07:45:54.512Z,9.74
2023-03-26T07:48:29.659Z,9.78
2023-03-26T07:50:57.540Z,9.82
2023-03-26T07:53:24.968Z,9.89
2023-03-26T07:56:15.958Z,9.94
2023-03-26T07:59:12.598Z,9.99
2023-03-26T08:01:50.093Z,10.05
2023-03-26T08:04:44.772Z,10.10
2023-03-26T08:07:27.852Z,10.15
2023-03-26T08:10:13.119Z,10.21
2023-03-26T08:12:48.195Z,10.28
2023-03-26T08:15:29.606Z,10.35
2023-03-26T08:18:06.545Z,10.40
2023-03-26T08:20:49.051Z,10.45
2023-03-26T08:23:57.655Z,10.52
2023-03-26T08:26:24.554Z,10.59
2023-03-26T08:28:52.752Z,10.66
2023-03-26T08:31:30.762Z,10.72
2023-03-26T08:33:57.654Z,10.80
2023-03-26T08:36:24.518Z,10.86
2023-03-26T08:38:51.817Z,10.92
2023-03-26T08:41:37.096Z,11.00
2023-03-26T08:44:09.606Z,11.07
2023-03-26T08:47:10.443Z,11.17
2023-03-26T08:50:02.593Z,11.26
2023-03-26T08:52:56.270Z,11.36
2023-03-26T08:55:44.289Z,11.48
2023-03-26T08:58:48.452Z,11.58
2023-03-26T09:01:39.447Z,11.68
2023-03-26T09:04:44.024Z,11.76
2023-03-26T09:07:19.882Z,11.85
2023-03-26T09:09:49.576Z,11.92
2023-03-26T09:12:25.518Z,11.98
2023-03-26T09:15:22.786Z,12.05
2023-03-26T09:18:27.278Z,12.09
2023-03-26T09:21:22.298Z,12.14
2023-03-26T09:24:10.342Z,12.17
2023-03-26T09:27:14.105Z,12.21
2023-03-26T09:29:56.057Z,12.25
2023-03-26T09:32:42.266Z,12.29
2023-03-26T09:35:14.818Z,12.34
2023-03-26T09:37:59.429Z,12.39
2023-03-26T09:40:38.414Z,12.45
2023-03-26T09:43:42.898Z,12.49
2023-03-26T09:47:00.407Z,12.57
2023-03-26T09:49:50.484Z,12.64
2023-03-26T09:52:33.397Z,12.71
2023-03-26T09:55:20.637Z,12.73
2023-03-26T09:58:05.832Z,12.76
2023-03-26T10:00:54.208Z,12.81
2023-03-26T10:03:31.290Z,12.86
2023-03-26T10:06:02.613Z,12.90
2023-03-26T10:09:02.860Z,12.94
2023-03-26T10:11:36.112Z,13.01
2023-03-26T10:14:26.139Z,13.06
2023-03-26T10:17:05.097Z,13.12
2023-03-26T10:19:48.629Z,13.18
2023-03-26T10:23:02.318Z,13.23
2023-03-26T10:25:49.545Z,13.27
2023-03-26T10:28:43.783Z,13.31
2023-03-26T10:31:44.514Z,13.34
2023-03-26T10:34:28.464Z,13.43
2023-03-26T10:37:46.030Z,13.51
2023-03-26T10:40:16.253Z,13.58
2023-03-26T10:43:29.664Z,13.64
2023-03-26T10:46:11.412Z,13.67
2023-03-26T10:48:44.161Z,13.72
2023-03-26T10:51:35.622Z,13.80
2023-03-26T10:54:12.692Z,13.89
2023-03-26T10:56:49.449Z,14.00
2023-03-26T10:59:17.802Z,14.05
2023-03-26T11:02:11.157Z,14.07
2023-03-26T11:04:55.801Z,14.10
2023-03-26T11:07:55.043Z,14.14
2023-03-26T11:11:03.635Z,14.22
2023-03-26T11:13:56.549Z,14.27
2023-03-26T11:16:35.243Z,14.36
2023-03-26T11:19:10.973Z,14.40
2023-03-26T11:21:52.142Z,14.42
2023-03-26T11:24:50.082Z,14.42
2023-03-26T11:27:29.728Z,14.48
2023-03-26T11:30:22.312Z,14.52
2023-03-26T11:32:54.633Z,14.57
2023-03-26T11:35:40.683Z,14.60
2023-03-26T11:38:28.856Z,14.61
2023-03-26T11:40:58.279Z,14.63
2023-03-26T11:43:35.106Z,14.65
2023-03-26T11:46:05.925Z,14.69
2023-03-26T11:48:39.953Z,14.73
2023-03-26T11:51:23.760Z,14.72
2023-03-26T11:53:50.792Z,14.73
2023-03-26T11:56:39.359Z,14.77
2023-03-26T11:59:08.930Z,14.84
2023-03-26T12:02:05.101Z,14.88
2023-03-26T12:04:36.831Z,14.91
2023-03-26T12:07:23.403Z,14.97
2023-03-26T12:09:52.499Z,15.02
2023-03-26T12:12:21.856Z,15.08
2023-03-26T12:14:48.972Z,15.13
2023-03-26T12:17:31.442Z,15.21
2023-03-26T12:19:59.543Z,15.26
2023-03-26T12:22:43.483Z,15.32
2023-03-26T12:25:19.242Z,15.38
2023-03-26T12:28:02.524Z,15.45
2023-03-26T12:30:34.014Z,15.51
2023-03-26T12:33:04.585Z,15.55
2023-03-26T12:35:36.162Z,15.58
2023-03-26T12:38:35.681Z,15.64
2023-03-26T12:44:42.053Z,15.67
2023-03-26T12:44:46.329Z,15.74
2023-03-26T12:47:59.507Z,15.85
2023-03-26T12:50:35.717Z,15.91
2023-03-26T12:53:05.478Z,15.94
2023-03-26T12:55:48.882Z,15.98
2023-03-26T12:58:38.357Z,16.04
2023-03-26T13:01:15.972Z,16.13
2023-03-26T13:03:58.510Z,16.19
2023-03-26T13:06:59.073Z,16.20
2023-03-26T13:09:44.889Z,16.24
2023-03-26T13:12:26.980Z,16.25
2023-03-26T13:15:02.472Z,16.26
2023-03-26T13:17:42.395Z,16.31
2023-03-26T13:20:21.496Z,16.29
2023-03-26T13:23:21.861Z,16.31
2023-03-26T13:26:14.871Z,16.31
2023-03-26T13:29:13.685Z,16.31
2023-03-26T13:32:00.289Z,16.34
2023-03-26T13:34:57.774Z,16.36
2023-03-26T13:37:47.941Z,16.36
2023-03-26T13:40:35.576Z,16.45
2023-03-26T13:43:22.141Z,16.52
2023-03-26T13:46:07.526Z,16.55
2023-03-26T13:49:09.837Z,16.57
2023-03-26T13:51:55.889Z,16.61
2023-03-26T13:54:40.206Z,16.64
2023-03-26T13:57:29.575Z,16.66
2023-03-26T14:00:01.207Z,16.68
2023-03-26T14:03:02.064Z,16.70
2023-03-26T14:05:43.206Z,16.71
2023-03-26T14:08:22.000Z,16.73
2023-03-26T14:10:59.525Z,16.77
2023-03-26T14:13:33.514Z,16.81
2023-03-26T14:16:26.082Z,16.84
2023-03-26T14:19:15.209Z,16.86
2023-03-26T14:21:52.569Z,16.87
2023-03-26T14:24:19.638Z,16.90
2023-03-26T14:27:24.792Z,16.91
2023-03-26T14:30:23.114Z,16.92
2023-03-26T14:33:27.920Z,16.93
2023-03-26T14:36:01.377Z,16.90
2023-03-26T14:38:46.776Z,16.91
2023-03-26T14:41:24.536Z,16.88
2023-03-26T14:44:10.163Z,16.87
2023-03-26T14:46:57.718Z,16.87
2023-03-26T14:49:54.941Z,16.84
2023-03-26T14:52:40.065Z,16.84
2023-03-26T14:55:17.489Z,16.84
2023-03-26T14:58:09.401Z,16.81
2023-03-26T15:01:07.800Z,16.80
2023-03-26T15:04:00.462Z,16.79
2023-03-26T15:06:51.665Z,16.78
2023-03-26T15:09:49.149Z,16.78
2023-03-26T15:12:58.181Z,16.77
2023-03-26T15:15:58.985Z,16.76
2023-03-26T15:18:38.020Z,16.75
2023-03-26T15:21:30.261Z,16.72
2023-03-26T15:24:25.557Z,16.72
2023-03-26T15:27:30.689Z,16.72
2023-03-26T15:30:10.748Z,16.69
2023-03-26T15:33:17.119Z,16.69
2023-03-26T15:36:09.698Z,16.67
2023-03-26T15:38:48.520Z,16.65
2023-03-26T15:41:40.106Z,16.64
2023-03-26T15:44:23.128Z,16.62
2023-03-26T15:47:11.822Z,16.61
2023-03-26T15:49:50.386Z,16.59
2023-03-26T15:52:25.612Z,16.58
2023-03-26T15:55:17.161Z,16.57
2023-03-26T15:58:27.573Z,16.53
2023-03-26T16:01:07.899Z,16.50
2023-03-26T16:03:51.772Z,16.49
2023-03-26T16:06:27.924Z,16.48
2023-03-26T16:09:13.325Z,16.46
2023-03-26T16:11:44.277Z,16.44
2023-03-26T16:14:23.550Z,16.42
2023-03-26T16:16:59.393Z,16.42
2023-03-26T16:19:36.419Z,16.37
2023-03-26T16:22:16.586Z,16.33
2023-03-26T16:24:51.416Z,16.32
2023-03-26T16:27:45.682Z,16.29
2023-03-26T16:30:27.089Z,16.27
2023-03-26T16:33:22.353Z,16.26
2023-03-26T16:36:18.635Z,16.23
2023-03-26T16:38:50.573Z,16.33
2023-03-26T16:41:27.967Z,16.22
2023-03-26T16:44:04.807Z,16.18
2023-03-26T16:46:46.243Z,16.15
2023-03-26T16:49:25.390Z,16.13
2023-03-26T16:52:22.209Z,16.10
2023-03-26T16:55:10.881Z,16.08
2023-03-26T16:58:04.053Z,16.05
2023-03-26T17:00:41.678Z,16.00
2023-03-26T17:03:28.049Z,15.97
2023-03-26T17:06:02.608Z,15.93
2023-03-26T17:08:47.636Z,15.92
2023-03-26T17:11:24.586Z,15.89
2023-03-26T17:14:48.900Z,15.84
2023-03-26T17:17:24.378Z,15.79
2023-03-26T17:20:33.535Z,15.76
2023-03-26T17:23:34.855Z,15.72
2023-03-26T17:26:11.418Z,15.69
2023-03-26T17:28:56.483Z,15.64
2023-03-26T17:31:59.092Z,15.62
2023-03-26T17:34:38.845Z,15.58
2023-03-26T17:37:12.186Z,15.52
2023-03-26T17:39:40.020Z,15.48
2023-03-26T17:42:16.894Z,15.46
2023-03-26T17:44:51.358Z,15.44
2023-03-26T17:47:26.639Z,15.40
2023-03-26T17:50:01.454Z,15.40
2023-03-26T17:52:50.032Z,15.37
2023-03-26T17:55:21.818Z,15.36
2023-03-26T17:57:57.261Z,15.33
2023-03-26T18:00:32.109Z,15.32
2023-03-26T18:03:05.617Z,15.29
2023-03-26T18:05:39.652Z,15.29
2023-03-26T18:08:42.390Z,15.27
2023-03-26T18:11:25.684Z,15.24
2023-03-26T18:14:25.465Z,15.21
2023-03-26T18:16:57.100Z,15.13
2023-03-26T18:19:29.938Z,15.11
2023-03-26T18:22:04.030Z,15.10
2023-03-26T18:24:38.452Z,15.08
2023-03-26T18:27:12.639Z,15.08
2023-03-26T18:30:02.436Z,15.08
2023-03-26T18:32:34.061Z,15.03
2023-03-26T18:35:14.958Z,15.04
2023-03-26T18:37:46.486Z,14.99
2023-03-26T18:40:17.364Z,14.98
2023-03-26T18:42:55.310Z,14.93
2023-03-26T18:45:31.724Z,14.89
2023-03-26T18:48:05.323Z,14.85
2023-03-26T18:50:39.953Z,14.80
2023-03-26T18:53:19.165Z,14.78
2023-03-26T18:55:48.336Z,14.79
2023-03-26T18:58:30.922Z,14.77
2023-03-26T19:01:02.715Z,14.74
2023-03-26T19:03:36.130Z,14.72
2023-03-26T19:06:09.193Z,14.71
2023-03-26T19:08:41.806Z,14.69
2023-03-26T19:11:12.110Z,14.69
2023-03-26T19:13:43.875Z,14.67
2023-03-26T19:16:34.642Z,14.64
2023-03-26T19:19:07.188Z,14.62
2023-03-26T19:21:39.869Z,14.58
2023-03-26T19:24:10.043Z,14.55
2023-03-26T19:26:38.561Z,14.53
2023-03-26T19:29:06.958Z,14.48
2023-03-26T19:31:40.595Z,14.42
2023-03-26T19:34:21.012Z,14.36
2023-03-26T19:37:03.650Z,14.33
2023-03-26T19:39:46.949Z,14.33
2023-03-26T19:42:19.181Z,14.25
2023-03-26T19:44:47.718Z,14.21
2023-03-26T19:47:35.365Z,14.16
2023-03-26T19:50:33.540Z,14.12
2023-03-26T19:53:30.589Z,14.11
2023-03-26T19:56:05.235Z,14.07
2023-03-26T19:58:36.333Z,14.01
2023-03-26T20:01:07.609Z,13.96
2023-03-26T20:03:42.480Z,13.95
2023-03-26T20:06:13.518Z,13.89
2023-03-26T20:08:44.381Z,13.88
2023-03-26T20:11:19.273Z,13.85
2023-03-26T20:13:47.928Z,13.85
2023-03-26T20:16:29.260Z,13.80
2023-03-26T20:18:57.954Z,13.82
2023-03-26T20:21:26.975Z,13.78
2023-03-26T20:23:55.495Z,13.72
2023-03-26T20:26:29.358Z,13.69
2023-03-26T20:28:57.737Z,13.66
2023-03-26T20:31:27.360Z,13.65
2023-03-26T20:33:55.776Z,13.63
2023-03-26T20:36:33.747Z,13.59
2023-03-26T20:39:08.408Z,13.56
2023-03-26T20:41:39.948Z,13.54
2023-03-26T20:44:15.801Z,13.51
2023-03-26T20:46:44.355Z,13.46
2023-03-26T20:49:12.667Z,13.44
2023-03-26T20:51:42.050Z,13.42
2023-03-26T20:54:17.887Z,13.40
2023-03-26T20:56:46.034Z,13.41
2023-03-26T20:59:18.126Z,13.39
2023-03-26T21:01:48.859Z,13.36
2023-03-26T21:04:17.162Z,13.33
2023-03-26T21:06:44.448Z,13.20
2023-03-26T21:09:24.110Z,13.12
2023-03-26T21:11:53.831Z,13.07
2023-03-26T21:14:41.158Z,13.04
2023-03-26T21:17:27.209Z,13.03
2023-03-26T21:19:54.806Z,13.00
2023-03-26T21:22:36.201Z,12.98
2023-03-26T21:25:21.385Z,12.90
2023-03-26T21:28:23.998Z,12.87
2023-03-26T21:30:53.557Z,12.84
2023-03-26T21:33:22.093Z,12.82
2023-03-26T21:35:53.470Z,12.81
2023-03-26T21:38:24.711Z,12.81
2023-03-26T21:40:58.693Z,12.83
2023-03-26T21:43:26.156Z,12.86
2023-03-26T21:45:57.434Z,12.88
2023-03-26T21:48:24.832Z,12.88
2023-03-26T21:50:51.948Z,12.90
2023-03-26T21:53:18.924Z,12.90
2023-03-26T21:56:18.027Z,12.81
2023-03-26T21:58:51.291Z,12.77
2023-03-26T22:01:53.541Z,12.77
2023-03-26T22:04:29.571Z,12.74
2023-03-26T22:07:11.289Z,12.72
2023-03-26T22:09:38.497Z,12.70
2023-03-26T22:12:05.705Z,12.67
2023-03-26T22:14:33.679Z,12.65
2023-03-26T22:17:00.432Z,12.64
2023-03-26T22:19:28.572Z,12.63
2023-03-26T22:22:00.233Z,12.62
2023-03-26T22:24:27.203Z,12.59
2023-03-26T22:26:54.013Z,12.56
2023-03-26T22:29:20.950Z,12.57
2023-03-26T22:31:47.835Z,12.53
2023-03-26T22:34:14.655Z,12.49
2023-03-26T22:36:41.405Z,12.46
2023-03-26T22:39:08.138Z,12.45
2023-03-26T22:41:34.852Z,12.43
2023-03-26T22:44:12.922Z,12.38
2023-03-26T22:46:49.304Z,12.34
2023-03-26T22:49:16.881Z,12.35
2023-03-26T22:51:43.811Z,12.34
2023-03-26T22:54:10.649Z,12.31
2023-03-26T22:56:37.742Z,12.28
2023-03-26T22:59:04.822Z,12.26
2023-03-26T23:01:31.856Z,12.23
2023-03-26T23:03:58.683Z,12.22
2023-03-26T23:06:25.694Z,12.18
2023-03-26T23:08:52.597Z,12.18
2023-03-26T23:11:21.984Z,12.17
2023-03-26T23:13:49.367Z,12.13
2023-03-26T23:16:17.528Z,12.14
2023-03-26T23:18:44.865Z,12.13
2023-03-26T23:21:18.392Z,12.14
2023-03-26T23:23:46.299Z,12.10
2023-03-26T23:26:14.847Z,12.06
2023-03-26T23:28:42.095Z,12.03
2023-03-26T23:31:10.465Z,12.04
2023-03-26T23:33:45.624Z,11.99
2023-03-26T23:36:14.853Z,11.99
2023-03-26T23:38:43.838Z,11.99
2023-03-26T23:41:15.156Z,11.97
2023-03-26T23:43:54.216Z,11.94
2023-03-26T23:46:23.677Z,11.95
2023-03-26T23:48:51.640Z,11.95
2023-03-26T23:51:24.154Z,11.91
2023-03-26T23:53:52.626Z,11.90
2023-03-26T23:56:19.467Z,11.88
2023-03-26T23:58:46.201Z,11.86
